aviador You're here:

LZZI Decoded Metar

ZILINA in SLOVAKIA
Report Time2017-10-22 06:00:00
UTC Time2017-10-22 06:27:48
Flight Rules ifr IFR
Wind070° at 03 kt
W.Decomp.*RWY 06: 3.0 kt HW 0.4 kt RCW
W.Rank070° ranks 3
Current wind is below 070° avg. (4.5)
Visibility4300 m
Phenomena:Mist
Clouds:Broken 007 Hf
Overcast 036 Hf
Ceiling700 ft
Temp09°C (ISA -4)
Dew Point09°C (100% RH)
AAT7.7°C
QNH1015 hPa
Density Alt636 ft
Elevation1,020 ft
Report Wrong Elevation
Raw Report
LZZI 220600Z 07003KT 4300 BR BKN007 OVC036 09/09 Q1015=

Extra information for LZZI:More info

Metar Taf Metar & Taf Last 4 Metars F.Rules Stats Wind Profile Meteogram Temp Stats Airport Information Weather charts Add Link Nearby VenuesMetar ALERT Operation Metar Decoded Social comments